Terminal Aerodrome Forecast
Issued by NWS Wakefield, VA

Home | Current Version | Previous Version | Text Only | Print | Product List | Glossary On
Versions: 1 2 3 4 5 6 7 8 9 10 11 12 13 14 15 16 17 18 19 20 21 22 23 24
000
FTUS41 KAKQ 021135
TAFECG
TAF
KECG 021135Z 0212/0312 27003KT 4SM BR BKN250
      TEMPO 0212/0213 1SM BR
     FM021300 VRB03KT P6SM SCT025 BKN250
     FM021600 16005KT P6SM SCT050
     FM030000 20004KT P6SM BKN250=

USA.gov is the U.S. government's official web portal to all federal, state and local government web resources and services.